sensor_id;sensor_type;location;lat;lon;timestamp;P1;durP1;ratioP1;P2;durP2;ratioP2
44145;SDS011;29809;52.432;4.780;2023-11-22T00:01:19;3.70;;;2.53;;
44145;SDS011;29809;52.432;4.780;2023-11-22T00:03:44;2.40;;;2.20;;
44145;SDS011;29809;52.432;4.780;2023-11-22T00:06:09;2.28;;;2.08;;
44145;SDS011;29809;52.432;4.780;2023-11-22T00:08:35;2.13;;;1.92;;
44145;SDS011;29809;52.432;4.780;2023-11-22T00:11:00;1.70;;;1.60;;
44145;SDS011;29809;52.432;4.780;2023-11-22T00:13:25;2.20;;;2.00;;
44145;SDS011;29809;52.432;4.780;2023-11-22T00:15:50;2.13;;;1.90;;
44145;SDS011;29809;52.432;4.780;2023-11-22T00:18:16;2.38;;;2.17;;
44145;SDS011;29809;52.432;4.780;2023-11-22T00:20:41;2.72;;;2.10;;
44145;SDS011;29809;52.432;4.780;2023-11-22T00:23:06;2.78;;;2.10;;
44145;SDS011;29809;52.432;4.780;2023-11-22T00:25:31;4.10;;;2.10;;
44145;SDS011;29809;52.432;4.780;2023-11-22T00:27:58;2.00;;;1.85;;
44145;SDS011;29809;52.432;4.780;2023-11-22T00:30:23;2.28;;;2.08;;
44145;SDS011;29809;52.432;4.780;2023-11-22T00:32:48;2.20;;;2.00;;
44145;SDS011;29809;52.432;4.780;2023-11-22T00:35:14;2.40;;;2.20;;
44145;SDS011;29809;52.432;4.780;2023-11-22T00:37:39;2.50;;;1.92;;
44145;SDS011;29809;52.432;4.780;2023-11-22T00:40:05;1.63;;;1.52;;
44145;SDS011;29809;52.432;4.780;2023-11-22T00:42:36;2.28;;;2.08;;
44145;SDS011;29809;52.432;4.780;2023-11-22T00:45:01;2.15;;;1.95;;
44145;SDS011;29809;52.432;4.780;2023-11-22T00:47:26;1.83;;;1.60;;
44145;SDS011;29809;52.432;4.780;2023-11-22T00:49:51;3.08;;;1.95;;
44145;SDS011;29809;52.432;4.780;2023-11-22T00:52:17;2.88;;;2.15;;
44145;SDS011;29809;52.432;4.780;2023-11-22T00:54:42;2.10;;;1.90;;
44145;SDS011;29809;52.432;4.780;2023-11-22T00:57:07;1.80;;;1.70;;
44145;SDS011;29809;52.432;4.780;2023-11-22T00:59:33;1.83;;;1.67;;
44145;SDS011;29809;52.432;4.780;2023-11-22T01:01:58;2.05;;;1.88;;
44145;SDS011;29809;52.432;4.780;2023-11-22T01:04:23;1.95;;;1.83;;
44145;SDS011;29809;52.432;4.780;2023-11-22T01:06:48;2.00;;;1.80;;
44145;SDS011;29809;52.432;4.780;2023-11-22T01:09:14;2.22;;;2.03;;
44145;SDS011;29809;52.432;4.780;2023-11-22T01:11:39;2.03;;;1.75;;
44145;SDS011;29809;52.432;4.780;2023-11-22T01:14:04;1.98;;;1.85;;
44145;SDS011;29809;52.432;4.780;2023-11-22T01:16:30;1.80;;;1.70;;
44145;SDS011;29809;52.432;4.780;2023-11-22T01:18:55;1.95;;;1.80;;
44145;SDS011;29809;52.432;4.780;2023-11-22T01:21:20;3.30;;;2.17;;
44145;SDS011;29809;52.432;4.780;2023-11-22T01:23:46;1.90;;;1.63;;
44145;SDS011;29809;52.432;4.780;2023-11-22T01:26:11;1.83;;;1.70;;
44145;SDS011;29809;52.432;4.780;2023-11-22T01:28:37;1.83;;;1.70;;
44145;SDS011;29809;52.432;4.780;2023-11-22T01:31:02;1.67;;;1.58;;
44145;SDS011;29809;52.432;4.780;2023-11-22T01:33:28;1.85;;;1.70;;
44145;SDS011;29809;52.432;4.780;2023-11-22T01:35:54;1.88;;;1.60;;
44145;SDS011;29809;52.432;4.780;2023-11-22T01:38:19;2.00;;;1.80;;
44145;SDS011;29809;52.432;4.780;2023-11-22T01:40:45;1.60;;;1.50;;
44145;SDS011;29809;52.432;4.780;2023-11-22T01:43:17;2.88;;;1.92;;
44145;SDS011;29809;52.432;4.780;2023-11-22T01:45:43;2.15;;;1.88;;
44145;SDS011;29809;52.432;4.780;2023-11-22T01:48:09;1.92;;;1.60;;
44145;SDS011;29809;52.432;4.780;2023-11-22T01:50:36;1.90;;;1.77;;
44145;SDS011;29809;52.432;4.780;2023-11-22T01:53:01;2.08;;;1.90;;
44145;SDS011;29809;52.432;4.780;2023-11-22T01:55:27;2.30;;;2.10;;
44145;SDS011;29809;52.432;4.780;2023-11-22T01:57:52;1.83;;;1.73;;
44145;SDS011;29809;52.432;4.780;2023-11-22T02:00:18;2.15;;;1.95;;
44145;SDS011;29809;52.432;4.780;2023-11-22T02:02:44;2.30;;;2.10;;
44145;SDS011;29809;52.432;4.780;2023-11-22T02:05:09;1.73;;;1.63;;
44145;SDS011;29809;52.432;4.780;2023-11-22T02:07:36;2.20;;;2.05;;
44145;SDS011;29809;52.432;4.780;2023-11-22T02:10:02;1.85;;;1.70;;
44145;SDS011;29809;52.432;4.780;2023-11-22T02:12:27;1.88;;;1.75;;
44145;SDS011;29809;52.432;4.780;2023-11-22T02:14:53;1.60;;;1.50;;
44145;SDS011;29809;52.432;4.780;2023-11-22T02:17:18;1.90;;;1.80;;
44145;SDS011;29809;52.432;4.780;2023-11-22T02:19:43;1.80;;;1.70;;
44145;SDS011;29809;52.432;4.780;2023-11-22T02:22:08;1.73;;;1.63;;
44145;SDS011;29809;52.432;4.780;2023-11-22T02:24:34;1.73;;;1.52;;
44145;SDS011;29809;52.432;4.780;2023-11-22T02:26:59;2.47;;;1.63;;
44145;SDS011;29809;52.432;4.780;2023-11-22T02:29:25;2.85;;;1.98;;
44145;SDS011;29809;52.432;4.780;2023-11-22T02:31:50;3.28;;;1.88;;
44145;SDS011;29809;52.432;4.780;2023-11-22T02:34:15;1.40;;;1.30;;
44145;SDS011;29809;52.432;4.780;2023-11-22T02:36:43;1.52;;;1.40;;
44145;SDS011;29809;52.432;4.780;2023-11-22T02:39:09;1.90;;;1.70;;
44145;SDS011;29809;52.432;4.780;2023-11-22T02:41:34;2.20;;;1.75;;
44145;SDS011;29809;52.432;4.780;2023-11-22T02:44:00;1.80;;;1.60;;
44145;SDS011;29809;52.432;4.780;2023-11-22T02:46:25;1.55;;;1.13;;
44145;SDS011;29809;52.432;4.780;2023-11-22T02:48:51;1.92;;;1.70;;
44145;SDS011;29809;52.432;4.780;2023-11-22T02:51:17;1.80;;;1.70;;
44145;SDS011;29809;52.432;4.780;2023-11-22T02:53:42;1.70;;;1.45;;
44145;SDS011;29809;52.432;4.780;2023-11-22T02:56:10;2.38;;;1.60;;
44145;SDS011;29809;52.432;4.780;2023-11-22T02:58:35;1.65;;;1.55;;
44145;SDS011;29809;52.432;4.780;2023-11-22T03:01:01;1.70;;;1.60;;
44145;SDS011;29809;52.432;4.780;2023-11-22T03:03:26;1.77;;;1.67;;
44145;SDS011;29809;52.432;4.780;2023-11-22T03:05:52;1.70;;;1.60;;
44145;SDS011;29809;52.432;4.780;2023-11-22T03:08:17;1.73;;;1.63;;
44145;SDS011;29809;52.432;4.780;2023-11-22T03:10:42;1.50;;;1.40;;
44145;SDS011;29809;52.432;4.780;2023-11-22T03:13:08;1.73;;;1.63;;
44145;SDS011;29809;52.432;4.780;2023-11-22T03:15:33;1.50;;;1.40;;
44145;SDS011;29809;52.432;4.780;2023-11-22T03:17:59;1.77;;;1.65;;
44145;SDS011;29809;52.432;4.780;2023-11-22T03:20:24;1.77;;;1.65;;
44145;SDS011;29809;52.432;4.780;2023-11-22T03:22:50;1.60;;;1.45;;
44145;SDS011;29809;52.432;4.780;2023-11-22T03:25:15;2.00;;;1.58;;
44145;SDS011;29809;52.432;4.780;2023-11-22T03:27:41;1.65;;;1.50;;
44145;SDS011;29809;52.432;4.780;2023-11-22T03:30:06;1.60;;;1.50;;
44145;SDS011;29809;52.432;4.780;2023-11-22T03:32:36;1.63;;;1.52;;
44145;SDS011;29809;52.432;4.780;2023-11-22T03:35:03;1.67;;;1.58;;
44145;SDS011;29809;52.432;4.780;2023-11-22T03:37:30;1.65;;;1.55;;
44145;SDS011;29809;52.432;4.780;2023-11-22T03:39:55;1.83;;;1.67;;
44145;SDS011;29809;52.432;4.780;2023-11-22T03:42:20;1.85;;;1.75;;
44145;SDS011;29809;52.432;4.780;2023-11-22T03:44:46;2.08;;;1.50;;
44145;SDS011;29809;52.432;4.780;2023-11-22T03:47:11;1.83;;;1.73;;
44145;SDS011;29809;52.432;4.780;2023-11-22T03:49:38;1.75;;;1.65;;
44145;SDS011;29809;52.432;4.780;2023-11-22T03:52:03;1.40;;;1.30;;
44145;SDS011;29809;52.432;4.780;2023-11-22T03:54:28;1.50;;;1.40;;
44145;SDS011;29809;52.432;4.780;2023-11-22T03:56:53;1.60;;;1.50;;
44145;SDS011;29809;52.432;4.780;2023-11-22T03:59:19;1.52;;;1.38;;
44145;SDS011;29809;52.432;4.780;2023-11-22T04:01:44;1.73;;;1.40;;
44145;SDS011;29809;52.432;4.780;2023-11-22T04:04:09;1.70;;;1.60;;
44145;SDS011;29809;52.432;4.780;2023-11-22T04:06:35;1.80;;;1.70;;
44145;SDS011;29809;52.432;4.780;2023-11-22T04:09:00;1.60;;;1.50;;
44145;SDS011;29809;52.432;4.780;2023-11-22T04:11:26;1.63;;;1.50;;
44145;SDS011;29809;52.432;4.780;2023-11-22T04:13:53;1.63;;;1.50;;
44145;SDS011;29809;52.432;4.780;2023-11-22T04:16:18;1.65;;;1.55;;
44145;SDS011;29809;52.432;4.780;2023-11-22T04:18:43;3.53;;;2.10;;
44145;SDS011;29809;52.432;4.780;2023-11-22T04:21:09;1.60;;;1.50;;
44145;SDS011;29809;52.432;4.780;2023-11-22T04:23:34;1.63;;;1.42;;
44145;SDS011;29809;52.432;4.780;2023-11-22T04:26:00;1.52;;;1.42;;
44145;SDS011;29809;52.432;4.780;2023-11-22T04:28:26;1.77;;;1.30;;
44145;SDS011;29809;52.432;4.780;2023-11-22T04:30:51;1.70;;;1.60;;
44145;SDS011;29809;52.432;4.780;2023-11-22T04:33:17;1.70;;;1.60;;
44145;SDS011;29809;52.432;4.780;2023-11-22T04:35:42;1.63;;;1.45;;
44145;SDS011;29809;52.432;4.780;2023-11-22T04:38:07;1.85;;;1.40;;
44145;SDS011;29809;52.432;4.780;2023-11-22T04:40:33;1.58;;;1.38;;
44145;SDS011;29809;52.432;4.780;2023-11-22T04:42:59;2.05;;;1.60;;
44145;SDS011;29809;52.432;4.780;2023-11-22T04:45:24;1.52;;;1.30;;
44145;SDS011;29809;52.432;4.780;2023-11-22T04:47:49;1.50;;;1.40;;
44145;SDS011;29809;52.432;4.780;2023-11-22T04:50:14;1.77;;;1.67;;
44145;SDS011;29809;52.432;4.780;2023-11-22T04:52:40;2.00;;;1.80;;
44145;SDS011;29809;52.432;4.780;2023-11-22T04:55:05;1.77;;;1.67;;
44145;SDS011;29809;52.432;4.780;2023-11-22T04:57:30;2.10;;;1.80;;
44145;SDS011;29809;52.432;4.780;2023-11-22T04:59:55;1.73;;;1.63;;
44145;SDS011;29809;52.432;4.780;2023-11-22T05:02:21;1.38;;;1.27;;
44145;SDS011;29809;52.432;4.780;2023-11-22T05:04:47;1.85;;;1.63;;
44145;SDS011;29809;52.432;4.780;2023-11-22T05:07:14;2.08;;;1.75;;
44145;SDS011;29809;52.432;4.780;2023-11-22T05:09:40;2.17;;;2.08;;
44145;SDS011;29809;52.432;4.780;2023-11-22T05:12:05;2.10;;;1.95;;
44145;SDS011;29809;52.432;4.780;2023-11-22T05:14:31;2.20;;;1.90;;
44145;SDS011;29809;52.432;4.780;2023-11-22T05:16:56;2.55;;;2.35;;
44145;SDS011;29809;52.432;4.780;2023-11-22T05:19:21;2.22;;;2.03;;
44145;SDS011;29809;52.432;4.780;2023-11-22T05:21:47;2.28;;;2.08;;
44145;SDS011;29809;52.432;4.780;2023-11-22T05:24:12;2.13;;;1.92;;
44145;SDS011;29809;52.432;4.780;2023-11-22T05:26:37;2.13;;;1.85;;
44145;SDS011;29809;52.432;4.780;2023-11-22T05:29:03;2.00;;;1.77;;
44145;SDS011;29809;52.432;4.780;2023-11-22T05:31:29;2.38;;;1.92;;
44145;SDS011;29809;52.432;4.780;2023-11-22T05:33:55;2.60;;;1.90;;
44145;SDS011;29809;52.432;4.780;2023-11-22T05:36:20;2.00;;;1.83;;
44145;SDS011;29809;52.432;4.780;2023-11-22T05:38:45;2.47;;;2.28;;
44145;SDS011;29809;52.432;4.780;2023-11-22T05:41:11;2.42;;;2.22;;
44145;SDS011;29809;52.432;4.780;2023-11-22T05:43:36;2.58;;;2.38;;
44145;SDS011;29809;52.432;4.780;2023-11-22T05:46:04;5.70;;;2.28;;
44145;SDS011;29809;52.432;4.780;2023-11-22T05:48:29;5.35;;;2.35;;
44145;SDS011;29809;52.432;4.780;2023-11-22T05:50:55;3.42;;;2.65;;
44145;SDS011;29809;52.432;4.780;2023-11-22T05:53:20;5.70;;;2.70;;
44145;SDS011;29809;52.432;4.780;2023-11-22T05:55:46;3.55;;;2.30;;
44145;SDS011;29809;52.432;4.780;2023-11-22T05:58:12;10.55;;;2.70;;
44145;SDS011;29809;52.432;4.780;2023-11-22T06:00:41;2.42;;;2.30;;
44145;SDS011;29809;52.432;4.780;2023-11-22T06:03:06;3.17;;;2.55;;
44145;SDS011;29809;52.432;4.780;2023-11-22T06:05:31;2.38;;;2.17;;
44145;SDS011;29809;52.432;4.780;2023-11-22T06:07:57;3.20;;;2.50;;
44145;SDS011;29809;52.432;4.780;2023-11-22T06:10:22;4.55;;;2.60;;
44145;SDS011;29809;52.432;4.780;2023-11-22T06:12:48;32.55;;;8.15;;
44145;SDS011;29809;52.432;4.780;2023-11-22T06:15:13;52.55;;;14.57;;
44145;SDS011;29809;52.432;4.780;2023-11-22T06:17:39;77.57;;;17.08;;
44145;SDS011;29809;52.432;4.780;2023-11-22T06:20:04;57.67;;;17.20;;
44145;SDS011;29809;52.432;4.780;2023-11-22T06:22:29;58.72;;;16.98;;
44145;SDS011;29809;52.432;4.780;2023-11-22T06:24:55;41.05;;;14.48;;
44145;SDS011;29809;52.432;4.780;2023-11-22T06:27:20;35.30;;;13.80;;
44145;SDS011;29809;52.432;4.780;2023-11-22T06:29:45;44.17;;;14.23;;
44145;SDS011;29809;52.432;4.780;2023-11-22T06:32:11;36.83;;;13.02;;
44145;SDS011;29809;52.432;4.780;2023-11-22T06:34:37;41.15;;;13.18;;
44145;SDS011;29809;52.432;4.780;2023-11-22T06:37:02;39.55;;;12.70;;
44145;SDS011;29809;52.432;4.780;2023-11-22T06:39:27;33.53;;;11.93;;
44145;SDS011;29809;52.432;4.780;2023-11-22T06:41:53;29.42;;;10.88;;
44145;SDS011;29809;52.432;4.780;2023-11-22T06:44:18;19.55;;;8.35;;
44145;SDS011;29809;52.432;4.780;2023-11-22T06:46:43;25.00;;;9.20;;
44145;SDS011;29809;52.432;4.780;2023-11-22T06:49:08;21.55;;;8.77;;
44145;SDS011;29809;52.432;4.780;2023-11-22T06:51:34;21.42;;;8.63;;
44145;SDS011;29809;52.432;4.780;2023-11-22T06:53:59;16.95;;;8.27;;
44145;SDS011;29809;52.432;4.780;2023-11-22T06:56:24;15.27;;;7.32;;
44145;SDS011;29809;52.432;4.780;2023-11-22T06:58:50;17.65;;;7.20;;
44145;SDS011;29809;52.432;4.780;2023-11-22T07:01:16;16.05;;;7.45;;
44145;SDS011;29809;52.432;4.780;2023-11-22T07:03:41;17.38;;;8.05;;
44145;SDS011;29809;52.432;4.780;2023-11-22T07:06:07;15.85;;;6.63;;
44145;SDS011;29809;52.432;4.780;2023-11-22T07:08:33;15.10;;;6.55;;
44145;SDS011;29809;52.432;4.780;2023-11-22T07:10:58;17.27;;;6.93;;
44145;SDS011;29809;52.432;4.780;2023-11-22T07:13:23;14.48;;;5.82;;
44145;SDS011;29809;52.432;4.780;2023-11-22T07:15:49;14.15;;;7.03;;
44145;SDS011;29809;52.432;4.780;2023-11-22T07:18:15;11.68;;;5.80;;
44145;SDS011;29809;52.432;4.780;2023-11-22T07:20:41;11.07;;;5.55;;
44145;SDS011;29809;52.432;4.780;2023-11-22T07:23:06;11.88;;;5.90;;
44145;SDS011;29809;52.432;4.780;2023-11-22T07:25:31;12.13;;;5.80;;
44145;SDS011;29809;52.432;4.780;2023-11-22T07:27:58;14.38;;;5.60;;
44145;SDS011;29809;52.432;4.780;2023-11-22T07:30:24;11.02;;;5.20;;
44145;SDS011;29809;52.432;4.780;2023-11-22T07:32:55;9.55;;;5.93;;
44145;SDS011;29809;52.432;4.780;2023-11-22T07:35:20;11.10;;;6.07;;
44145;SDS011;29809;52.432;4.780;2023-11-22T07:37:46;9.95;;;6.07;;
44145;SDS011;29809;52.432;4.780;2023-11-22T07:40:12;8.48;;;4.80;;
44145;SDS011;29809;52.432;4.780;2023-11-22T07:42:38;10.68;;;5.53;;
44145;SDS011;29809;52.432;4.780;2023-11-22T07:45:04;12.23;;;5.75;;
44145;SDS011;29809;52.432;4.780;2023-11-22T07:47:29;8.73;;;5.60;;
44145;SDS011;29809;52.432;4.780;2023-11-22T07:49:54;7.40;;;5.55;;
44145;SDS011;29809;52.432;4.780;2023-11-22T07:52:23;7.43;;;5.28;;
44145;SDS011;29809;52.432;4.780;2023-11-22T07:54:54;8.63;;;4.90;;
44145;SDS011;29809;52.432;4.780;2023-11-22T07:57:20;7.32;;;5.28;;
44145;SDS011;29809;52.432;4.780;2023-11-22T07:59:45;5.78;;;4.97;;
44145;SDS011;29809;52.432;4.780;2023-11-22T08:02:12;5.75;;;4.53;;
44145;SDS011;29809;52.432;4.780;2023-11-22T08:04:37;8.70;;;4.32;;
44145;SDS011;29809;52.432;4.780;2023-11-22T08:07:03;6.53;;;4.30;;
44145;SDS011;29809;52.432;4.780;2023-11-22T08:09:28;7.93;;;5.05;;
44145;SDS011;29809;52.432;4.780;2023-11-22T08:11:58;6.93;;;5.20;;
44145;SDS011;29809;52.432;4.780;2023-11-22T08:14:23;8.73;;;4.85;;
44145;SDS011;29809;52.432;4.780;2023-11-22T08:16:50;7.43;;;4.97;;
44145;SDS011;29809;52.432;4.780;2023-11-22T08:19:15;6.47;;;4.60;;
44145;SDS011;29809;52.432;4.780;2023-11-22T08:21:41;7.55;;;4.90;;
44145;SDS011;29809;52.432;4.780;2023-11-22T08:24:06;7.20;;;4.80;;
44145;SDS011;29809;52.432;4.780;2023-11-22T08:26:32;7.50;;;4.88;;
44145;SDS011;29809;52.432;4.780;2023-11-22T08:28:57;6.22;;;4.93;;
44145;SDS011;29809;52.432;4.780;2023-11-22T08:31:22;5.32;;;4.55;;
44145;SDS011;29809;52.432;4.780;2023-11-22T08:33:47;5.28;;;4.50;;
44145;SDS011;29809;52.432;4.780;2023-11-22T08:36:12;6.40;;;4.65;;
44145;SDS011;29809;52.432;4.780;2023-11-22T08:38:38;6.82;;;4.68;;
44145;SDS011;29809;52.432;4.780;2023-11-22T08:41:07;5.30;;;4.80;;
44145;SDS011;29809;52.432;4.780;2023-11-22T08:43:36;6.53;;;4.88;;
44145;SDS011;29809;52.432;4.780;2023-11-22T08:46:02;7.30;;;5.22;;
44145;SDS011;29809;52.432;4.780;2023-11-22T08:48:31;7.25;;;4.95;;
44145;SDS011;29809;52.432;4.780;2023-11-22T08:50:57;7.47;;;5.60;;
44145;SDS011;29809;52.432;4.780;2023-11-22T08:53:23;4.95;;;3.97;;
44145;SDS011;29809;52.432;4.780;2023-11-22T08:55:48;6.00;;;5.00;;
44145;SDS011;29809;52.432;4.780;2023-11-22T08:58:14;5.75;;;4.57;;
44145;SDS011;29809;52.432;4.780;2023-11-22T09:00:39;5.28;;;4.78;;
44145;SDS011;29809;52.432;4.780;2023-11-22T09:03:06;7.70;;;5.93;;
44145;SDS011;29809;52.432;4.780;2023-11-22T09:05:32;6.05;;;4.80;;
44145;SDS011;29809;52.432;4.780;2023-11-22T09:07:57;8.85;;;5.15;;
44145;SDS011;29809;52.432;4.780;2023-11-22T09:10:23;8.48;;;5.85;;
44145;SDS011;29809;52.432;4.780;2023-11-22T09:12:49;6.95;;;5.25;;
44145;SDS011;29809;52.432;4.780;2023-11-22T09:15:14;8.43;;;6.40;;
44145;SDS011;29809;52.432;4.780;2023-11-22T09:17:44;7.93;;;6.68;;
44145;SDS011;29809;52.432;4.780;2023-11-22T09:20:11;7.88;;;6.97;;
44145;SDS011;29809;52.432;4.780;2023-11-22T09:22:38;6.45;;;5.80;;
44145;SDS011;29809;52.432;4.780;2023-11-22T09:25:09;8.73;;;6.32;;
44145;SDS011;29809;52.432;4.780;2023-11-22T09:27:36;7.55;;;6.30;;
44145;SDS011;29809;52.432;4.780;2023-11-22T09:30:02;6.97;;;5.75;;
44145;SDS011;29809;52.432;4.780;2023-11-22T09:32:27;6.63;;;5.93;;
44145;SDS011;29809;52.432;4.780;2023-11-22T09:34:53;6.45;;;5.75;;
44145;SDS011;29809;52.432;4.780;2023-11-22T09:37:22;6.68;;;5.97;;
44145;SDS011;29809;52.432;4.780;2023-11-22T09:39:48;7.28;;;6.45;;
44145;SDS011;29809;52.432;4.780;2023-11-22T09:42:13;9.02;;;5.93;;
44145;SDS011;29809;52.432;4.780;2023-11-22T09:44:38;6.25;;;5.65;;
44145;SDS011;29809;52.432;4.780;2023-11-22T09:47:04;8.15;;;6.13;;
44145;SDS011;29809;52.432;4.780;2023-11-22T09:49:30;6.95;;;6.25;;
44145;SDS011;29809;52.432;4.780;2023-11-22T09:51:56;7.60;;;6.35;;
44145;SDS011;29809;52.432;4.780;2023-11-22T09:54:25;6.32;;;5.72;;
44145;SDS011;29809;52.432;4.780;2023-11-22T09:56:54;6.60;;;5.97;;
44145;SDS011;29809;52.432;4.780;2023-11-22T09:59:20;6.70;;;5.97;;
44145;SDS011;29809;52.432;4.780;2023-11-22T10:01:48;8.73;;;6.03;;
44145;SDS011;29809;52.432;4.780;2023-11-22T10:04:13;7.18;;;6.47;;
44145;SDS011;29809;52.432;4.780;2023-11-22T10:06:39;7.38;;;6.68;;
44145;SDS011;29809;52.432;4.780;2023-11-22T10:09:06;8.07;;;6.85;;
44145;SDS011;29809;52.432;4.780;2023-11-22T10:11:33;8.75;;;6.72;;
44145;SDS011;29809;52.432;4.780;2023-11-22T10:13:58;8.05;;;6.55;;
44145;SDS011;29809;52.432;4.780;2023-11-22T10:16:24;8.63;;;6.65;;
44145;SDS011;29809;52.432;4.780;2023-11-22T10:18:49;6.15;;;5.55;;
44145;SDS011;29809;52.432;4.780;2023-11-22T10:21:27;7.25;;;6.53;;
44145;SDS011;29809;52.432;4.780;2023-11-22T10:23:55;7.43;;;6.68;;
44145;SDS011;29809;52.432;4.780;2023-11-22T10:26:24;7.30;;;6.47;;
44145;SDS011;29809;52.432;4.780;2023-11-22T10:28:55;7.55;;;6.57;;
44145;SDS011;29809;52.432;4.780;2023-11-22T10:31:21;7.07;;;6.38;;
44145;SDS011;29809;52.432;4.780;2023-11-22T10:33:47;8.43;;;6.45;;
44145;SDS011;29809;52.432;4.780;2023-11-22T10:36:13;8.60;;;7.68;;
44145;SDS011;29809;52.432;4.780;2023-11-22T10:38:39;7.30;;;6.57;;
44145;SDS011;29809;52.432;4.780;2023-11-22T10:41:05;7.18;;;6.20;;
44145;SDS011;29809;52.432;4.780;2023-11-22T10:43:30;6.68;;;5.97;;
44145;SDS011;29809;52.432;4.780;2023-11-22T10:45:59;7.50;;;6.22;;
44145;SDS011;29809;52.432;4.780;2023-11-22T10:48:26;7.70;;;6.90;;
44145;SDS011;29809;52.432;4.780;2023-11-22T10:50:52;7.65;;;6.53;;
44145;SDS011;29809;52.432;4.780;2023-11-22T10:53:31;7.55;;;6.35;;
44145;SDS011;29809;52.432;4.780;2023-11-22T10:55:59;7.90;;;6.75;;
44145;SDS011;29809;52.432;4.780;2023-11-22T10:58:27;7.72;;;6.38;;
44145;SDS011;29809;52.432;4.780;2023-11-22T11:00:53;8.20;;;6.90;;
44145;SDS011;29809;52.432;4.780;2023-11-22T11:03:19;7.10;;;6.40;;
44145;SDS011;29809;52.432;4.780;2023-11-22T11:05:50;7.20;;;6.38;;
44145;SDS011;29809;52.432;4.780;2023-11-22T11:08:16;8.45;;;6.60;;
44145;SDS011;29809;52.432;4.780;2023-11-22T11:10:43;7.25;;;6.43;;
44145;SDS011;29809;52.432;4.780;2023-11-22T11:13:09;7.65;;;5.70;;
44145;SDS011;29809;52.432;4.780;2023-11-22T11:15:35;6.57;;;5.63;;
44145;SDS011;29809;52.432;4.780;2023-11-22T11:18:00;6.72;;;6.03;;
44145;SDS011;29809;52.432;4.780;2023-11-22T11:20:30;6.95;;;5.82;;
44145;SDS011;29809;52.432;4.780;2023-11-22T11:22:56;8.85;;;6.70;;
44145;SDS011;29809;52.432;4.780;2023-11-22T11:25:22;6.90;;;6.10;;
44145;SDS011;29809;52.432;4.780;2023-11-22T11:27:57;7.00;;;6.13;;
44145;SDS011;29809;52.432;4.780;2023-11-22T11:33:00;8.77;;;7.40;;
44145;SDS011;29809;52.432;4.780;2023-11-22T11:38:31;7.07;;;6.38;;
44145;SDS011;29809;52.432;4.780;2023-11-22T11:41:06;7.32;;;6.70;;
44145;SDS011;29809;52.432;4.780;2023-11-22T11:43:43;7.97;;;7.05;;
44145;SDS011;29809;52.432;4.780;2023-11-22T11:46:09;7.50;;;6.80;;
44145;SDS011;29809;52.432;4.780;2023-11-22T11:48:34;7.20;;;6.55;;
44145;SDS011;29809;52.432;4.780;2023-11-22T11:51:00;9.07;;;6.82;;
44145;SDS011;29809;52.432;4.780;2023-11-22T11:53:26;7.22;;;6.43;;
44145;SDS011;29809;52.432;4.780;2023-11-22T11:55:51;6.60;;;6.00;;
44145;SDS011;29809;52.432;4.780;2023-11-22T11:58:18;6.82;;;5.88;;
44145;SDS011;29809;52.432;4.780;2023-11-22T12:00:43;6.57;;;5.95;;
44145;SDS011;29809;52.432;4.780;2023-11-22T12:03:09;8.35;;;6.97;;
44145;SDS011;29809;52.432;4.780;2023-11-22T12:05:36;7.45;;;6.75;;
44145;SDS011;29809;52.432;4.780;2023-11-22T12:08:01;6.60;;;5.93;;
44145;SDS011;29809;52.432;4.780;2023-11-22T12:10:27;7.05;;;6.35;;
44145;SDS011;29809;52.432;4.780;2023-11-22T12:12:52;7.22;;;6.35;;
44145;SDS011;29809;52.432;4.780;2023-11-22T12:15:18;9.55;;;7.35;;
44145;SDS011;29809;52.432;4.780;2023-11-22T12:17:43;7.63;;;6.50;;
44145;SDS011;29809;52.432;4.780;2023-11-22T12:20:13;7.47;;;6.65;;
44145;SDS011;29809;52.432;4.780;2023-11-22T12:22:39;6.95;;;6.25;;
44145;SDS011;29809;52.432;4.780;2023-11-22T12:25:04;7.22;;;5.82;;
44145;SDS011;29809;52.432;4.780;2023-11-22T12:27:30;7.22;;;6.50;;
44145;SDS011;29809;52.432;4.780;2023-11-22T12:29:56;7.93;;;6.38;;
44145;SDS011;29809;52.432;4.780;2023-11-22T12:32:23;6.97;;;6.28;;
44145;SDS011;29809;52.432;4.780;2023-11-22T12:34:49;7.28;;;5.68;;
44145;SDS011;29809;52.432;4.780;2023-11-22T12:37:14;5.97;;;5.38;;
44145;SDS011;29809;52.432;4.780;2023-11-22T12:39:40;6.22;;;5.63;;
44145;SDS011;29809;52.432;4.780;2023-11-22T12:42:06;6.18;;;4.65;;
44145;SDS011;29809;52.432;4.780;2023-11-22T12:44:46;6.13;;;5.53;;
44145;SDS011;29809;52.432;4.780;2023-11-22T12:47:12;4.82;;;4.32;;
44145;SDS011;29809;52.432;4.780;2023-11-22T12:49:43;5.72;;;5.22;;
44145;SDS011;29809;52.432;4.780;2023-11-22T12:52:10;5.60;;;4.70;;
44145;SDS011;29809;52.432;4.780;2023-11-22T12:54:37;4.57;;;3.90;;
44145;SDS011;29809;52.432;4.780;2023-11-22T12:57:03;5.30;;;4.57;;
44145;SDS011;29809;52.432;4.780;2023-11-22T12:59:32;5.70;;;5.18;;
44145;SDS011;29809;52.432;4.780;2023-11-22T13:01:58;4.30;;;3.90;;
44145;SDS011;29809;52.432;4.780;2023-11-22T13:04:25;5.15;;;4.25;;
44145;SDS011;29809;52.432;4.780;2023-11-22T13:06:50;3.92;;;3.58;;
44145;SDS011;29809;52.432;4.780;2023-11-22T13:09:15;4.15;;;3.75;;
44145;SDS011;29809;52.432;4.780;2023-11-22T13:11:41;5.75;;;4.07;;
44145;SDS011;29809;52.432;4.780;2023-11-22T13:14:11;4.63;;;4.20;;
44145;SDS011;29809;52.432;4.780;2023-11-22T13:16:39;4.07;;;3.67;;
44145;SDS011;29809;52.432;4.780;2023-11-22T13:19:04;3.97;;;3.58;;
44145;SDS011;29809;52.432;4.780;2023-11-22T13:21:29;5.22;;;4.25;;
44145;SDS011;29809;52.432;4.780;2023-11-22T13:23:56;4.47;;;4.03;;
44145;SDS011;29809;52.432;4.780;2023-11-22T13:26:22;4.72;;;4.25;;
44145;SDS011;29809;52.432;4.780;2023-11-22T13:28:47;4.57;;;4.10;;
44145;SDS011;29809;52.432;4.780;2023-11-22T13:31:12;4.40;;;4.00;;
44145;SDS011;29809;52.432;4.780;2023-11-22T13:33:38;6.35;;;4.15;;
44145;SDS011;29809;52.432;4.780;2023-11-22T13:36:03;4.75;;;4.05;;
44145;SDS011;29809;52.432;4.780;2023-11-22T13:38:29;4.65;;;4.25;;
44145;SDS011;29809;52.432;4.780;2023-11-22T13:40:54;4.97;;;4.03;;
44145;SDS011;29809;52.432;4.780;2023-11-22T13:43:19;5.30;;;4.47;;
44145;SDS011;29809;52.432;4.780;2023-11-22T13:45:45;5.32;;;4.05;;
44145;SDS011;29809;52.432;4.780;2023-11-22T13:48:10;4.78;;;3.80;;
44145;SDS011;29809;52.432;4.780;2023-11-22T13:50:36;4.57;;;4.07;;
44145;SDS011;29809;52.432;4.780;2023-11-22T13:53:02;4.88;;;3.97;;
44145;SDS011;29809;52.432;4.780;2023-11-22T13:55:28;5.55;;;4.00;;
44145;SDS011;29809;52.432;4.780;2023-11-22T13:57:57;4.32;;;3.47;;
44145;SDS011;29809;52.432;4.780;2023-11-22T14:00:25;4.60;;;4.20;;
44145;SDS011;29809;52.432;4.780;2023-11-22T14:02:52;4.50;;;3.88;;
44145;SDS011;29809;52.432;4.780;2023-11-22T14:05:18;5.55;;;3.88;;
44145;SDS011;29809;52.432;4.780;2023-11-22T14:07:43;4.75;;;3.63;;
44145;SDS011;29809;52.432;4.780;2023-11-22T14:10:09;4.72;;;3.20;;
44145;SDS011;29809;52.432;4.780;2023-11-22T14:12:35;4.80;;;3.55;;
44145;SDS011;29809;52.432;4.780;2023-11-22T14:15:01;4.43;;;3.78;;
44145;SDS011;29809;52.432;4.780;2023-11-22T14:17:29;5.03;;;3.72;;
44145;SDS011;29809;52.432;4.780;2023-11-22T14:19:54;4.38;;;3.97;;
44145;SDS011;29809;52.432;4.780;2023-11-22T14:22:20;3.42;;;3.13;;
44145;SDS011;29809;52.432;4.780;2023-11-22T14:24:47;4.55;;;4.15;;
44145;SDS011;29809;52.432;4.780;2023-11-22T14:27:12;4.68;;;3.80;;
44145;SDS011;29809;52.432;4.780;2023-11-22T14:29:37;3.88;;;3.38;;
44145;SDS011;29809;52.432;4.780;2023-11-22T14:32:03;3.92;;;3.33;;
44145;SDS011;29809;52.432;4.780;2023-11-22T14:34:28;4.97;;;3.80;;
44145;SDS011;29809;52.432;4.780;2023-11-22T14:36:53;3.80;;;3.45;;
44145;SDS011;29809;52.432;4.780;2023-11-22T14:39:19;4.40;;;3.65;;
44145;SDS011;29809;52.432;4.780;2023-11-22T14:41:46;4.18;;;3.55;;
44145;SDS011;29809;52.432;4.780;2023-11-22T14:44:11;4.10;;;3.70;;